Nedlloyd Mercator — PCIM — position and weather

sailwx.info

Track history (hours):
 
Tides and Currents Weather Stations Pressure Air Temp Water Temp Dewpoint Dewpoint Depression Visibility Wind Speed Wind Dir Waves Ship Positions

Nedlloyd Mercator

Last reported at 2014-Sep-22 00:32 UTC. Time now 2014-Sep-22 06:18 UTC.
Position N 44°25' E 037°20'.

Length 278 m; beam 43 m.

Type: Ship (hazmat cat A). MMSI: 246433000.

Date/timePositionNaut miles runAvg speedWind from/ knotsBaromVisibWave heightAir tempDewpointWater temp
2014-Sep-22 00:32N 44°25' E 037°20'3 5.1
2014-Sep-22 00:00N 44°24' E 037°24'1023.1 040 / 71011.2 5.4 0.517.013.822.8
2014-Sep-21 23:33N 44°30' E 037°35'1212.1
2014-Sep-21 22:33N 44°37' E 037°49'7 6.4
2014-Sep-21 21:31N 44°44' E 037°47'0 0.0
2014-Sep-21 20:31N 44°44' E 037°47'0 0.0
2014-Sep-21 19:31N 44°44' E 037°47'0 0.0
2014-Sep-21 18:31N 44°44' E 037°47'0 0.0
2014-Sep-21 17:31N 44°44' E 037°47'0 0.0
2014-Sep-21 16:31N 44°44' E 037°47'0 0.0
2014-Sep-21 15:31N 44°44' E 037°47'0 0.0
2014-Sep-21 14:34N 44°44' E 037°47'0 0.0
2014-Sep-21 13:34N 44°44' E 037°47'0 0.0
2014-Sep-21 12:33N 44°44' E 037°47'0 0.0
2014-Sep-21 11:33N 44°44' E 037°47'0 0.0
2014-Sep-21 10:33N 44°44' E 037°47'0 0.0
2014-Sep-21 09:33N 44°44' E 037°47'0 0.0
2014-Sep-21 08:33N 44°44' E 037°47'0 0.0
2014-Sep-21 07:33N 44°44' E 037°47'0 0.0
2014-Sep-21 06:33N 44°44' E 037°47'0 0.0
2014-Sep-21 05:33N 44°44' E 037°47'0 0.0
2014-Sep-21 04:33N 44°44' E 037°47'0 0.0
2014-Sep-21 03:33N 44°44' E 037°47'0 0.0
2014-Sep-21 02:33N 44°44' E 037°47'0 0.3
2014-Sep-21 01:33N 44°44' E 037°47'6 5.7
2014-Sep-21 00:33N 44°38' E 037°51'9 9.1
2014-Sep-20 23:33N 44°30' E 037°46'3 2.6
2014-Sep-20 22:33N 44°28' E 037°44'1 0.8
2014-Sep-20 21:33N 44°29' E 037°45'1 0.5
2014-Sep-20 20:33N 44°29' E 037°45'0 0.3
2014-Sep-20 19:33N 44°29' E 037°46'0 0.2
2014-Sep-20 18:33N 44°29' E 037°46'0 0.2
2014-Sep-20 17:33N 44°29' E 037°46'0 0.3
2014-Sep-20 16:33N 44°29' E 037°47'0 0.2
2014-Sep-20 15:33N 44°29' E 037°47'0 0.1
2014-Sep-20 14:33N 44°29' E 037°47'0 0.3
2014-Sep-20 13:33N 44°29' E 037°47'8 8.4
2014-Sep-20 12:33N 44°26' E 037°36'1220.9
2014-Sep-20 12:00N 44°18' E 037°24'611.8 020 / 131013.9 5.4 1.520.013.021.6
2014-Sep-20 11:31N 44°19' E 037°17'4216.7
2014-Sep-20 09:00N 44°00' E 036°24'3913.0 340 / 201015.0 5.4 1.017.013.522.4
2014-Sep-20 06:00N 43°42' E 035°36'8914.8 360 / 201015.6 5.4 2.017.014.421.6
2014-Sep-20 00:00N 43°00' E 033°48'9015.0 350 / 101017.510.8 1.519.013.822.4
2014-Sep-19 18:00N 42°18' E 032°00'9115.1 320 / 151018.7 5.4 2.020.514.622.9
2014-Sep-19 12:00N 41°36' E 030°12'6511.9 360 / 151019.1 5.4 2.026.515.022.7
2014-Sep-19 06:31N 40°60' E 028°60'9 8.9
2014-Sep-19 05:33N 40°51' E 029°01'3 2.7
2014-Sep-19 04:33N 40°49' E 028°59'1 1.0
2014-Sep-19 03:33N 40°50' E 028°60'2 1.7
2014-Sep-19 02:33N 40°48' E 028°58'1 0.8
2014-Sep-19 01:33N 40°48' E 028°59'1 0.6
2014-Sep-19 00:32N 40°49' E 029°00'0 0.4
2014-Sep-18 23:33N 40°49' E 029°01'7 7.5
2014-Sep-18 22:33N 40°47' E 029°10'1212.3
2014-Sep-18 21:33N 40°45' E 029°26'1111.3
2014-Sep-18 20:31N 40°46' E 029°41'1 0.3
2014-Sep-18 16:33N 40°46' E 029°43'0 0.0
2014-Sep-18 14:22N 40°46' E 029°43'7 0.8
2014-Sep-18 06:00N 40°42' E 029°36'3 0.9 050 / 51012.8 5.4 20.015.822.5
2014-Sep-18 02:14N 40°45' E 029°37'3 0.4
2014-Sep-17 18:00N 40°42' E 029°36'3 1.2 140 / 71011.3 5.4 0.521.517.522.9
2014-Sep-17 15:20N 40°45' E 029°36'7 9.1
2014-Sep-17 14:32N 40°44' E 029°26'5 4.9
2014-Sep-17 13:33N 40°43' E 029°20'6 5.6
2014-Sep-17 12:33N 40°44' E 029°13'6 5.5
2014-Sep-17 11:33N 40°44' E 029°05'5 5.5
2014-Sep-17 10:33N 40°44' E 028°58'5 5.4
2014-Sep-17 09:33N 40°44' E 028°51'5 5.0
2014-Sep-17 08:28N 40°45' E 028°44'7 5.7
2014-Sep-17 07:11N 40°52' E 028°40'4 0.2
2014-Sep-16 10:32N 40°56' E 028°40'5 0.8
2014-Sep-16 04:03N 40°51' E 028°40'32 7.9
2014-Sep-16 00:00N 40°42' E 028°00'38 6.4 040 / 161010.510.8 1.022.516.824.8
2014-Sep-15 18:00N 40°30' E 027°12'118 9.9 060 / 241011.1 5.4 2.524.017.624.2
2014-Sep-15 06:00N 38°54' E 025°42'5 9.3 010 / 81010.7 5.4 0.527.519.023.5
2014-Sep-15 05:25N 38°49' E 025°44'1113.4
2014-Sep-15 04:34N 38°37' E 025°44'1313.4
2014-Sep-15 03:34N 38°24' E 025°45'1221.7
2014-Sep-15 03:00N 38°12' E 025°42'2 5.4 340 / 81009.310.8 25.320.424.6
2014-Sep-15 02:33N 38°10' E 025°44'1413.9
2014-Sep-15 01:33N 37°56' E 025°46'1613.8
2014-Sep-15 00:25N 37°41' E 025°51'613.6
2014-Sep-15 00:00N 37°36' E 025°48'818.9 330 / 181010.0 5.4 2.024.519.924.8
2014-Sep-14 23:33N 37°30' E 025°55'1312.9
2014-Sep-14 22:33N 37°18' E 025°60'1312.7
2014-Sep-14 21:33N 37°06' E 026°06'1312.5
2014-Sep-14 20:33N 36°56' E 026°15'1212.6
2014-Sep-14 19:33N 36°46' E 026°25'1512.9
2014-Sep-14 18:22N 36°34' E 026°38'514.6
2014-Sep-14 18:00N 36°30' E 026°42'912.2 300 / 251009.6 5.4 3.025.018.825.5
2014-Sep-14 17:17N 36°24' E 026°50'913.0
2014-Sep-14 16:33N 36°17' E 026°58'5411.8
2014-Sep-14 12:00N 35°42' E 027°48'1023.4 300 / 321007.610.8 2.529.021.626.8
2014-Sep-14 11:33N 35°43' E 028°01'7313.1
2014-Sep-14 06:00N 35°42' E 029°30'8814.6 300 / 151007.0 5.4 1.032.021.826.9
2014-Sep-14 00:00N 35°48' E 031°18'7813.0 240 / 91006.710.8 0.528.022.127.9
2014-Sep-13 18:00N 35°48' E 032°54'95 4.0 240 / 201007.4 5.4 2.027.523.928.1
2014-Sep-12 18:00N 36°36' E 034°36'13 2.2 210 / 161009.8 5.4 1.027.023.428.6
2014-Sep-12 12:00N 36°24' E 034°42'   230 / 181010.010.8 0.531.023.928.7
Track history (hours):
 
Tides and Currents Weather Stations Pressure Air Temp Water Temp Dewpoint Dewpoint Depression Visibility Wind Speed Wind Dir Waves Ship Positions

Nedlloyd Mercator

Last reported at 2014-Sep-22 00:32 UTC. Time now 2014-Sep-22 06:18 UTC.
Position N 44°25' E 037°20'.

Length 278 m; beam 43 m.

Type: Ship (hazmat cat A). MMSI: 246433000.

Date/timePositionNaut miles runAvg speedWind from/ knotsBaromVisibWave heightAir tempDewpointWater temp
2014-Sep-22 00:32N 44°25' E 037°20'3 5.1
2014-Sep-22 00:00N 44°24' E 037°24'1023.1 040 / 71011.2 5.4 0.517.013.822.8
2014-Sep-21 23:33N 44°30' E 037°35'1212.1
2014-Sep-21 22:33N 44°37' E 037°49'7 6.4
2014-Sep-21 21:31N 44°44' E 037°47'0 0.0
2014-Sep-21 20:31N 44°44' E 037°47'0 0.0
2014-Sep-21 19:31N 44°44' E 037°47'0 0.0
2014-Sep-21 18:31N 44°44' E 037°47'0 0.0
2014-Sep-21 17:31N 44°44' E 037°47'0 0.0
2014-Sep-21 16:31N 44°44' E 037°47'0 0.0
2014-Sep-21 15:31N 44°44' E 037°47'0 0.0
2014-Sep-21 14:34N 44°44' E 037°47'0 0.0
2014-Sep-21 13:34N 44°44' E 037°47'0 0.0
2014-Sep-21 12:33N 44°44' E 037°47'0 0.0
2014-Sep-21 11:33N 44°44' E 037°47'0 0.0
2014-Sep-21 10:33N 44°44' E 037°47'0 0.0
2014-Sep-21 09:33N 44°44' E 037°47'0 0.0
2014-Sep-21 08:33N 44°44' E 037°47'0 0.0
2014-Sep-21 07:33N 44°44' E 037°47'0 0.0
2014-Sep-21 06:33N 44°44' E 037°47'0 0.0
2014-Sep-21 05:33N 44°44' E 037°47'0 0.0
2014-Sep-21 04:33N 44°44' E 037°47'0 0.0
2014-Sep-21 03:33N 44°44' E 037°47'0 0.0
2014-Sep-21 02:33N 44°44' E 037°47'0 0.3
2014-Sep-21 01:33N 44°44' E 037°47'6 5.7
2014-Sep-21 00:33N 44°38' E 037°51'9 9.1
2014-Sep-20 23:33N 44°30' E 037°46'3 2.6
2014-Sep-20 22:33N 44°28' E 037°44'1 0.8
2014-Sep-20 21:33N 44°29' E 037°45'1 0.5
2014-Sep-20 20:33N 44°29' E 037°45'0 0.3
2014-Sep-20 19:33N 44°29' E 037°46'0 0.2
2014-Sep-20 18:33N 44°29' E 037°46'0 0.2
2014-Sep-20 17:33N 44°29' E 037°46'0 0.3
2014-Sep-20 16:33N 44°29' E 037°47'0 0.2
2014-Sep-20 15:33N 44°29' E 037°47'0 0.1
2014-Sep-20 14:33N 44°29' E 037°47'0 0.3
2014-Sep-20 13:33N 44°29' E 037°47'8 8.4
2014-Sep-20 12:33N 44°26' E 037°36'1220.9
2014-Sep-20 12:00N 44°18' E 037°24'611.8 020 / 131013.9 5.4 1.520.013.021.6
2014-Sep-20 11:31N 44°19' E 037°17'4216.7
2014-Sep-20 09:00N 44°00' E 036°24'3913.0 340 / 201015.0 5.4 1.017.013.522.4
2014-Sep-20 06:00N 43°42' E 035°36'8914.8 360 / 201015.6 5.4 2.017.014.421.6
2014-Sep-20 00:00N 43°00' E 033°48'9015.0 350 / 101017.510.8 1.519.013.822.4
2014-Sep-19 18:00N 42°18' E 032°00'9115.1 320 / 151018.7 5.4 2.020.514.622.9
2014-Sep-19 12:00N 41°36' E 030°12'6511.9 360 / 151019.1 5.4 2.026.515.022.7
2014-Sep-19 06:31N 40°60' E 028°60'9 8.9
2014-Sep-19 05:33N 40°51' E 029°01'3 2.7
2014-Sep-19 04:33N 40°49' E 028°59'1 1.0
2014-Sep-19 03:33N 40°50' E 028°60'2 1.7
2014-Sep-19 02:33N 40°48' E 028°58'1 0.8
2014-Sep-19 01:33N 40°48' E 028°59'1 0.6
2014-Sep-19 00:32N 40°49' E 029°00'0 0.4
2014-Sep-18 23:33N 40°49' E 029°01'7 7.5
2014-Sep-18 22:33N 40°47' E 029°10'1212.3
2014-Sep-18 21:33N 40°45' E 029°26'1111.3
2014-Sep-18 20:31N 40°46' E 029°41'1 0.3
2014-Sep-18 16:33N 40°46' E 029°43'0 0.0
2014-Sep-18 14:22N 40°46' E 029°43'7 0.8
2014-Sep-18 06:00N 40°42' E 029°36'3 0.9 050 / 51012.8 5.4 20.015.822.5
2014-Sep-18 02:14N 40°45' E 029°37'3 0.4
2014-Sep-17 18:00N 40°42' E 029°36'3 1.2 140 / 71011.3 5.4 0.521.517.522.9
2014-Sep-17 15:20N 40°45' E 029°36'7 9.1
2014-Sep-17 14:32N 40°44' E 029°26'5 4.9
2014-Sep-17 13:33N 40°43' E 029°20'6 5.6
2014-Sep-17 12:33N 40°44' E 029°13'6 5.5
2014-Sep-17 11:33N 40°44' E 029°05'5 5.5
2014-Sep-17 10:33N 40°44' E 028°58'5 5.4
2014-Sep-17 09:33N 40°44' E 028°51'5 5.0
2014-Sep-17 08:28N 40°45' E 028°44'7 5.7
2014-Sep-17 07:11N 40°52' E 028°40'4 0.2
2014-Sep-16 10:32N 40°56' E 028°40'5 0.8
2014-Sep-16 04:03N 40°51' E 028°40'32 7.9
2014-Sep-16 00:00N 40°42' E 028°00'38 6.4 040 / 161010.510.8 1.022.516.824.8
2014-Sep-15 18:00N 40°30' E 027°12'118 9.9 060 / 241011.1 5.4 2.524.017.624.2
2014-Sep-15 06:00N 38°54' E 025°42'5 9.3 010 / 81010.7 5.4 0.527.519.023.5
2014-Sep-15 05:25N 38°49' E 025°44'1113.4
2014-Sep-15 04:34N 38°37' E 025°44'1313.4
2014-Sep-15 03:34N 38°24' E 025°45'1221.7
2014-Sep-15 03:00N 38°12' E 025°42'2 5.4 340 / 81009.310.8 25.320.424.6
2014-Sep-15 02:33N 38°10' E 025°44'1413.9
2014-Sep-15 01:33N 37°56' E 025°46'1613.8
2014-Sep-15 00:25N 37°41' E 025°51'613.6
2014-Sep-15 00:00N 37°36' E 025°48'818.9 330 / 181010.0 5.4 2.024.519.924.8
2014-Sep-14 23:33N 37°30' E 025°55'1312.9
2014-Sep-14 22:33N 37°18' E 025°60'1312.7
2014-Sep-14 21:33N 37°06' E 026°06'1312.5
2014-Sep-14 20:33N 36°56' E 026°15'1212.6
2014-Sep-14 19:33N 36°46' E 026°25'1512.9
2014-Sep-14 18:22N 36°34' E 026°38'514.6
2014-Sep-14 18:00N 36°30' E 026°42'912.2 300 / 251009.6 5.4 3.025.018.825.5
2014-Sep-14 17:17N 36°24' E 026°50'913.0
2014-Sep-14 16:33N 36°17' E 026°58'5411.8
2014-Sep-14 12:00N 35°42' E 027°48'1023.4 300 / 321007.610.8 2.529.021.626.8
2014-Sep-14 11:33N 35°43' E 028°01'7313.1
2014-Sep-14 06:00N 35°42' E 029°30'8814.6 300 / 151007.0 5.4 1.032.021.826.9
2014-Sep-14 00:00N 35°48' E 031°18'7813.0 240 / 91006.710.8 0.528.022.127.9
2014-Sep-13 18:00N 35°48' E 032°54'95 4.0 240 / 201007.4 5.4 2.027.523.928.1
2014-Sep-12 18:00N 36°36' E 034°36'13 2.2 210 / 161009.8 5.4 1.027.023.428.6
2014-Sep-12 12:00N 36°24' E 034°42'   230 / 181010.010.8 0.531.023.928.7

Dump ship's entire track history